sensor_id;sensor_type;location;lat;lon;timestamp;temperature;humidity
10883;DHT22;5494;51.796;10.952;2023-10-08T00:01:37;18.30;15.40
10883;DHT22;5494;51.796;10.952;2023-10-08T00:04:09;18.30;13.20
10883;DHT22;5494;51.796;10.952;2023-10-08T00:06:39;18.30;4.50
10883;DHT22;5494;51.796;10.952;2023-10-08T00:09:08;18.30;9.50
10883;DHT22;5494;51.796;10.952;2023-10-08T00:11:38;18.40;2.80
10883;DHT22;5494;51.796;10.952;2023-10-08T00:14:07;18.40;5.60
10883;DHT22;5494;51.796;10.952;2023-10-08T00:16:37;18.40;1.00
10883;DHT22;5494;51.796;10.952;2023-10-08T00:19:07;18.40;16.20
10883;DHT22;5494;51.796;10.952;2023-10-08T00:21:39;18.40;19.00
10883;DHT22;5494;51.796;10.952;2023-10-08T00:24:11;18.40;35.90
10883;DHT22;5494;51.796;10.952;2023-10-08T00:26:40;18.30;58.40
10883;DHT22;5494;51.796;10.952;2023-10-08T00:29:09;18.30;95.00
10883;DHT22;5494;51.796;10.952;2023-10-08T00:31:44;18.20;99.90
10883;DHT22;5494;51.796;10.952;2023-10-08T00:34:12;18.20;99.90
10883;DHT22;5494;51.796;10.952;2023-10-08T00:36:44;18.10;99.90
10883;DHT22;5494;51.796;10.952;2023-10-08T00:39:15;18.00;99.90
10883;DHT22;5494;51.796;10.952;2023-10-08T00:41:50;17.00;99.90
10883;DHT22;5494;51.796;10.952;2023-10-08T00:44:24;15.80;99.90
10883;DHT22;5494;51.796;10.952;2023-10-08T00:46:57;14.90;99.90
10883;DHT22;5494;51.796;10.952;2023-10-08T00:49:28;14.30;99.90
10883;DHT22;5494;51.796;10.952;2023-10-08T00:52:16;13.90;99.90
10883;DHT22;5494;51.796;10.952;2023-10-08T00:54:58;13.80;99.90
10883;DHT22;5494;51.796;10.952;2023-10-08T00:57:52;13.70;99.90
10883;DHT22;5494;51.796;10.952;2023-10-08T01:00:34;13.50;99.90
10883;DHT22;5494;51.796;10.952;2023-10-08T01:03:07;13.40;99.90
10883;DHT22;5494;51.796;10.952;2023-10-08T01:05:42;13.40;99.90
10883;DHT22;5494;51.796;10.952;2023-10-08T01:08:16;13.30;99.90
10883;DHT22;5494;51.796;10.952;2023-10-08T01:10:50;12.10;99.90
10883;DHT22;5494;51.796;10.952;2023-10-08T01:13:30;13.10;99.90
10883;DHT22;5494;51.796;10.952;2023-10-08T01:16:09;13.00;99.90
10883;DHT22;5494;51.796;10.952;2023-10-08T01:18:37;13.10;99.90
10883;DHT22;5494;51.796;10.952;2023-10-08T01:21:10;13.10;99.90
10883;DHT22;5494;51.796;10.952;2023-10-08T01:23:47;13.20;99.90
10883;DHT22;5494;51.796;10.952;2023-10-08T01:26:20;13.30;99.90
10883;DHT22;5494;51.796;10.952;2023-10-08T01:28:49;13.30;99.90
10883;DHT22;5494;51.796;10.952;2023-10-08T01:31:19;13.30;99.90
10883;DHT22;5494;51.796;10.952;2023-10-08T01:33:47;13.30;99.90
10883;DHT22;5494;51.796;10.952;2023-10-08T01:36:17;13.30;99.90
10883;DHT22;5494;51.796;10.952;2023-10-08T01:38:47;13.30;99.90
10883;DHT22;5494;51.796;10.952;2023-10-08T01:41:16;13.30;99.90
10883;DHT22;5494;51.796;10.952;2023-10-08T01:43:56;13.20;99.90
10883;DHT22;5494;51.796;10.952;2023-10-08T01:46:26;13.20;99.90
10883;DHT22;5494;51.796;10.952;2023-10-08T01:48:55;13.20;99.90
10883;DHT22;5494;51.796;10.952;2023-10-08T01:51:30;13.20;99.90
10883;DHT22;5494;51.796;10.952;2023-10-08T01:54:07;13.20;99.90
10883;DHT22;5494;51.796;10.952;2023-10-08T01:56:39;13.10;99.90
10883;DHT22;5494;51.796;10.952;2023-10-08T01:59:10;13.10;99.90
10883;DHT22;5494;51.796;10.952;2023-10-08T02:01:41;13.10;99.90
10883;DHT22;5494;51.796;10.952;2023-10-08T02:04:10;13.00;99.90
10883;DHT22;5494;51.796;10.952;2023-10-08T02:06:40;13.00;99.90
10883;DHT22;5494;51.796;10.952;2023-10-08T02:09:09;12.90;99.90
10883;DHT22;5494;51.796;10.952;2023-10-08T02:11:44;12.80;99.90
10883;DHT22;5494;51.796;10.952;2023-10-08T02:14:17;12.80;99.90
10883;DHT22;5494;51.796;10.952;2023-10-08T02:16:46;12.80;99.90
10883;DHT22;5494;51.796;10.952;2023-10-08T02:19:15;12.70;99.90
10883;DHT22;5494;51.796;10.952;2023-10-08T02:21:45;12.70;99.90
10883;DHT22;5494;51.796;10.952;2023-10-08T02:24:15;12.70;99.90
10883;DHT22;5494;51.796;10.952;2023-10-08T02:26:44;12.70;99.90
10883;DHT22;5494;51.796;10.952;2023-10-08T02:29:12;12.60;99.90
10883;DHT22;5494;51.796;10.952;2023-10-08T02:31:41;12.50;99.90
10883;DHT22;5494;51.796;10.952;2023-10-08T02:34:10;12.40;99.90
10883;DHT22;5494;51.796;10.952;2023-10-08T02:36:40;12.40;99.90
10883;DHT22;5494;51.796;10.952;2023-10-08T02:39:10;12.30;99.90
10883;DHT22;5494;51.796;10.952;2023-10-08T02:41:46;12.30;99.90
10883;DHT22;5494;51.796;10.952;2023-10-08T02:44:16;12.20;99.90
10883;DHT22;5494;51.796;10.952;2023-10-08T02:46:45;12.20;99.90
10883;DHT22;5494;51.796;10.952;2023-10-08T02:49:15;12.20;99.90
10883;DHT22;5494;51.796;10.952;2023-10-08T02:51:47;12.10;99.90
10883;DHT22;5494;51.796;10.952;2023-10-08T02:54:17;12.20;99.90
10883;DHT22;5494;51.796;10.952;2023-10-08T02:56:49;12.10;99.90
10883;DHT22;5494;51.796;10.952;2023-10-08T02:59:19;12.10;99.90
10883;DHT22;5494;51.796;10.952;2023-10-08T03:01:50;12.00;99.90
10883;DHT22;5494;51.796;10.952;2023-10-08T03:04:23;12.00;99.90
10883;DHT22;5494;51.796;10.952;2023-10-08T03:06:55;11.90;99.90
10883;DHT22;5494;51.796;10.952;2023-10-08T03:09:23;11.70;99.90
10883;DHT22;5494;51.796;10.952;2023-10-08T03:11:54;11.60;99.90
10883;DHT22;5494;51.796;10.952;2023-10-08T03:14:25;11.50;99.90
10883;DHT22;5494;51.796;10.952;2023-10-08T03:16:54;11.40;99.90
10883;DHT22;5494;51.796;10.952;2023-10-08T03:19:36;11.20;99.90
10883;DHT22;5494;51.796;10.952;2023-10-08T03:22:05;11.00;99.90
10883;DHT22;5494;51.796;10.952;2023-10-08T03:24:33;10.90;99.90
10883;DHT22;5494;51.796;10.952;2023-10-08T03:27:10;10.80;99.90
10883;DHT22;5494;51.796;10.952;2023-10-08T03:29:42;10.70;99.90
10883;DHT22;5494;51.796;10.952;2023-10-08T03:32:14;10.70;99.90
10883;DHT22;5494;51.796;10.952;2023-10-08T03:34:44;10.60;99.90
10883;DHT22;5494;51.796;10.952;2023-10-08T03:37:15;10.50;99.90
10883;DHT22;5494;51.796;10.952;2023-10-08T03:39:48;10.30;99.90
10883;DHT22;5494;51.796;10.952;2023-10-08T03:42:28;10.10;99.90
10883;DHT22;5494;51.796;10.952;2023-10-08T03:45:01;10.00;99.90
10883;DHT22;5494;51.796;10.952;2023-10-08T03:47:39;10.00;99.90
10883;DHT22;5494;51.796;10.952;2023-10-08T03:50:13;9.90;99.90
10883;DHT22;5494;51.796;10.952;2023-10-08T03:52:44;9.80;99.90
10883;DHT22;5494;51.796;10.952;2023-10-08T03:55:13;9.70;99.90
10883;DHT22;5494;51.796;10.952;2023-10-08T03:57:50;9.70;99.90
10883;DHT22;5494;51.796;10.952;2023-10-08T04:00:24;9.80;99.90
10883;DHT22;5494;51.796;10.952;2023-10-08T04:02:58;9.80;99.90
10883;DHT22;5494;51.796;10.952;2023-10-08T04:05:36;9.90;99.90
10883;DHT22;5494;51.796;10.952;2023-10-08T04:08:16;9.90;99.90
10883;DHT22;5494;51.796;10.952;2023-10-08T04:10:52;9.90;99.90
10883;DHT22;5494;51.796;10.952;2023-10-08T04:13:50;9.90;99.90
10883;DHT22;5494;51.796;10.952;2023-10-08T04:16:19;9.90;99.90
10883;DHT22;5494;51.796;10.952;2023-10-08T04:18:48;9.90;99.90
10883;DHT22;5494;51.796;10.952;2023-10-08T04:21:22;9.90;99.90
10883;DHT22;5494;51.796;10.952;2023-10-08T04:23:54;9.90;99.90
10883;DHT22;5494;51.796;10.952;2023-10-08T04:26:24;9.90;99.90
10883;DHT22;5494;51.796;10.952;2023-10-08T04:28:55;10.00;99.90
10883;DHT22;5494;51.796;10.952;2023-10-08T04:31:25;10.00;99.90
10883;DHT22;5494;51.796;10.952;2023-10-08T04:34:04;10.00;99.90
10883;DHT22;5494;51.796;10.952;2023-10-08T04:36:36;9.90;99.90
10883;DHT22;5494;51.796;10.952;2023-10-08T04:39:06;10.00;99.90
10883;DHT22;5494;51.796;10.952;2023-10-08T04:41:42;10.10;99.90
10883;DHT22;5494;51.796;10.952;2023-10-08T04:44:13;10.10;99.90
10883;DHT22;5494;51.796;10.952;2023-10-08T04:46:42;10.10;99.90
10883;DHT22;5494;51.796;10.952;2023-10-08T04:49:15;10.10;99.90
10883;DHT22;5494;51.796;10.952;2023-10-08T04:51:55;10.10;99.90
10883;DHT22;5494;51.796;10.952;2023-10-08T04:54:25;10.00;99.90
10883;DHT22;5494;51.796;10.952;2023-10-08T04:56:58;10.00;99.90
10883;DHT22;5494;51.796;10.952;2023-10-08T04:59:30;10.00;99.90
10883;DHT22;5494;51.796;10.952;2023-10-08T05:02:03;10.00;99.90
10883;DHT22;5494;51.796;10.952;2023-10-08T05:04:47;10.10;99.90
10883;DHT22;5494;51.796;10.952;2023-10-08T05:07:49;10.10;99.90
10883;DHT22;5494;51.796;10.952;2023-10-08T05:10:35;10.10;99.90
10883;DHT22;5494;51.796;10.952;2023-10-08T05:13:28;10.10;99.90
10883;DHT22;5494;51.796;10.952;2023-10-08T05:16:03;10.20;99.90
10883;DHT22;5494;51.796;10.952;2023-10-08T05:18:56;10.20;99.90
10883;DHT22;5494;51.796;10.952;2023-10-08T05:22:04;10.30;99.90
10883;DHT22;5494;51.796;10.952;2023-10-08T05:24:45;10.30;99.90
10883;DHT22;5494;51.796;10.952;2023-10-08T05:27:35;10.40;99.90
10883;DHT22;5494;51.796;10.952;2023-10-08T05:30:23;10.40;99.90
10883;DHT22;5494;51.796;10.952;2023-10-08T05:33:07;10.40;99.90
10883;DHT22;5494;51.796;10.952;2023-10-08T05:35:52;10.40;99.90
10883;DHT22;5494;51.796;10.952;2023-10-08T05:38:36;10.40;99.90
10883;DHT22;5494;51.796;10.952;2023-10-08T05:41:26;10.40;99.90
10883;DHT22;5494;51.796;10.952;2023-10-08T05:44:06;10.40;99.90
10883;DHT22;5494;51.796;10.952;2023-10-08T05:46:53;10.40;99.90
10883;DHT22;5494;51.796;10.952;2023-10-08T05:49:51;10.30;99.90
10883;DHT22;5494;51.796;10.952;2023-10-08T05:52:41;10.30;99.90
10883;DHT22;5494;51.796;10.952;2023-10-08T05:55:17;10.30;99.90
10883;DHT22;5494;51.796;10.952;2023-10-08T05:57:54;10.30;99.90
10883;DHT22;5494;51.796;10.952;2023-10-08T06:00:41;10.40;99.90
10883;DHT22;5494;51.796;10.952;2023-10-08T06:03:27;10.40;99.90
10883;DHT22;5494;51.796;10.952;2023-10-08T06:06:07;10.50;99.90
10883;DHT22;5494;51.796;10.952;2023-10-08T06:09:04;10.60;99.90
10883;DHT22;5494;51.796;10.952;2023-10-08T06:11:50;10.50;99.90
10883;DHT22;5494;51.796;10.952;2023-10-08T06:14:35;10.50;99.90
10883;DHT22;5494;51.796;10.952;2023-10-08T06:17:35;10.50;99.90
10883;DHT22;5494;51.796;10.952;2023-10-08T06:20:25;10.50;99.90
10883;DHT22;5494;51.796;10.952;2023-10-08T06:22:55;10.40;99.90
10883;DHT22;5494;51.796;10.952;2023-10-08T06:25:30;10.50;99.90
10883;DHT22;5494;51.796;10.952;2023-10-08T06:27:58;10.50;99.90
10883;DHT22;5494;51.796;10.952;2023-10-08T06:30:26;10.50;99.90
10883;DHT22;5494;51.796;10.952;2023-10-08T06:33:02;10.50;99.90
10883;DHT22;5494;51.796;10.952;2023-10-08T06:35:31;10.50;99.90
10883;DHT22;5494;51.796;10.952;2023-10-08T06:38:02;10.50;99.90
10883;DHT22;5494;51.796;10.952;2023-10-08T06:40:34;10.60;99.90
10883;DHT22;5494;51.796;10.952;2023-10-08T06:43:08;10.70;99.90
10883;DHT22;5494;51.796;10.952;2023-10-08T06:45:49;10.70;99.90
10883;DHT22;5494;51.796;10.952;2023-10-08T06:48:20;10.70;99.90
10883;DHT22;5494;51.796;10.952;2023-10-08T06:50:51;10.70;99.90
10883;DHT22;5494;51.796;10.952;2023-10-08T06:53:26;10.70;99.90
10883;DHT22;5494;51.796;10.952;2023-10-08T06:55:56;10.80;99.90
10883;DHT22;5494;51.796;10.952;2023-10-08T06:58:25;10.80;99.90
10883;DHT22;5494;51.796;10.952;2023-10-08T07:00:53;10.80;99.90
10883;DHT22;5494;51.796;10.952;2023-10-08T07:03:22;10.80;99.90
10883;DHT22;5494;51.796;10.952;2023-10-08T07:05:52;10.90;99.90
10883;DHT22;5494;51.796;10.952;2023-10-08T07:08:30;10.80;99.90
10883;DHT22;5494;51.796;10.952;2023-10-08T07:11:00;10.90;99.90
10883;DHT22;5494;51.796;10.952;2023-10-08T07:13:33;11.00;99.90
10883;DHT22;5494;51.796;10.952;2023-10-08T07:16:04;11.00;99.90
10883;DHT22;5494;51.796;10.952;2023-10-08T07:18:32;11.00;99.90
10883;DHT22;5494;51.796;10.952;2023-10-08T07:21:02;11.10;99.90
10883;DHT22;5494;51.796;10.952;2023-10-08T07:23:40;11.00;99.90
10883;DHT22;5494;51.796;10.952;2023-10-08T07:26:24;11.10;99.90
10883;DHT22;5494;51.796;10.952;2023-10-08T07:28:53;11.10;99.90
10883;DHT22;5494;51.796;10.952;2023-10-08T07:31:23;11.20;99.90
10883;DHT22;5494;51.796;10.952;2023-10-08T07:33:56;11.20;99.90
10883;DHT22;5494;51.796;10.952;2023-10-08T07:36:25;11.20;99.90
10883;DHT22;5494;51.796;10.952;2023-10-08T07:38:57;11.30;99.90
10883;DHT22;5494;51.796;10.952;2023-10-08T07:41:30;11.40;99.90
10883;DHT22;5494;51.796;10.952;2023-10-08T07:43:58;11.50;99.90
10883;DHT22;5494;51.796;10.952;2023-10-08T07:46:27;11.60;99.90
10883;DHT22;5494;51.796;10.952;2023-10-08T07:48:55;11.60;99.90
10883;DHT22;5494;51.796;10.952;2023-10-08T07:51:25;11.70;99.90
10883;DHT22;5494;51.796;10.952;2023-10-08T07:53:54;11.90;99.90
10883;DHT22;5494;51.796;10.952;2023-10-08T07:56:25;12.00;99.90
10883;DHT22;5494;51.796;10.952;2023-10-08T07:58:54;12.20;99.90
10883;DHT22;5494;51.796;10.952;2023-10-08T08:01:23;12.40;99.90
10883;DHT22;5494;51.796;10.952;2023-10-08T08:03:52;12.60;99.90
10883;DHT22;5494;51.796;10.952;2023-10-08T08:06:21;12.90;99.90
10883;DHT22;5494;51.796;10.952;2023-10-08T08:08:50;12.90;99.90
10883;DHT22;5494;51.796;10.952;2023-10-08T08:11:18;13.00;99.90
10883;DHT22;5494;51.796;10.952;2023-10-08T08:13:54;13.00;99.90
10883;DHT22;5494;51.796;10.952;2023-10-08T08:16:22;13.10;99.90
10883;DHT22;5494;51.796;10.952;2023-10-08T08:18:53;13.20;99.90
10883;DHT22;5494;51.796;10.952;2023-10-08T08:21:24;13.30;63.80
10883;DHT22;5494;51.796;10.952;2023-10-08T08:23:52;13.50;35.20
10883;DHT22;5494;51.796;10.952;2023-10-08T08:26:31;13.60;49.70
10883;DHT22;5494;51.796;10.952;2023-10-08T08:29:08;13.50;34.40
10883;DHT22;5494;51.796;10.952;2023-10-08T08:31:42;13.50;44.50
10883;DHT22;5494;51.796;10.952;2023-10-08T08:34:13;13.50;44.10
10883;DHT22;5494;51.796;10.952;2023-10-08T08:36:46;13.70;28.60
10883;DHT22;5494;51.796;10.952;2023-10-08T08:39:16;13.90;3.70
10883;DHT22;5494;51.796;10.952;2023-10-08T08:41:59;14.00;1.00
10883;DHT22;5494;51.796;10.952;2023-10-08T08:44:31;14.20;1.00
10883;DHT22;5494;51.796;10.952;2023-10-08T08:47:06;14.40;1.00
10883;DHT22;5494;51.796;10.952;2023-10-08T08:49:37;14.80;1.00
10883;DHT22;5494;51.796;10.952;2023-10-08T08:52:07;15.00;1.00
10883;DHT22;5494;51.796;10.952;2023-10-08T08:54:35;15.10;1.00
10883;DHT22;5494;51.796;10.952;2023-10-08T08:57:06;15.30;1.00
10883;DHT22;5494;51.796;10.952;2023-10-08T08:59:44;15.50;1.00
10883;DHT22;5494;51.796;10.952;2023-10-08T09:02:21;15.70;99.90
10883;DHT22;5494;51.796;10.952;2023-10-08T09:04:49;15.90;99.90
10883;DHT22;5494;51.796;10.952;2023-10-08T09:07:23;16.10;15.30
10883;DHT22;5494;51.796;10.952;2023-10-08T09:09:56;16.30;99.90
10883;DHT22;5494;51.796;10.952;2023-10-08T09:12:26;16.50;99.90
10883;DHT22;5494;51.796;10.952;2023-10-08T09:15:01;16.60;99.90
10883;DHT22;5494;51.796;10.952;2023-10-08T09:17:31;16.70;1.00
10883;DHT22;5494;51.796;10.952;2023-10-08T09:20:01;16.60;99.90
10883;DHT22;5494;51.796;10.952;2023-10-08T09:22:31;16.80;99.90
10883;DHT22;5494;51.796;10.952;2023-10-08T09:25:00;17.10;76.50
10883;DHT22;5494;51.796;10.952;2023-10-08T09:27:32;17.30;1.00
10883;DHT22;5494;51.796;10.952;2023-10-08T09:30:06;17.40;99.90
10883;DHT22;5494;51.796;10.952;2023-10-08T09:32:39;17.70;99.90
10883;DHT22;5494;51.796;10.952;2023-10-08T09:35:09;18.10;99.90
10883;DHT22;5494;51.796;10.952;2023-10-08T09:37:40;18.40;99.90
10883;DHT22;5494;51.796;10.952;2023-10-08T09:40:11;18.70;1.00
10883;DHT22;5494;51.796;10.952;2023-10-08T09:42:47;18.80;1.00
10883;DHT22;5494;51.796;10.952;2023-10-08T09:45:17;18.90;1.00
10883;DHT22;5494;51.796;10.952;2023-10-08T09:47:50;19.00;1.00
10883;DHT22;5494;51.796;10.952;2023-10-08T09:50:27;18.80;1.00
10883;DHT22;5494;51.796;10.952;2023-10-08T09:53:01;19.00;1.00
10883;DHT22;5494;51.796;10.952;2023-10-08T09:55:35;18.70;1.00
10883;DHT22;5494;51.796;10.952;2023-10-08T09:58:04;18.30;1.00
10883;DHT22;5494;51.796;10.952;2023-10-08T10:00:35;18.10;37.30
10883;DHT22;5494;51.796;10.952;2023-10-08T10:03:05;18.10;1.00
10883;DHT22;5494;51.796;10.952;2023-10-08T10:05:34;18.10;1.00
10883;DHT22;5494;51.796;10.952;2023-10-08T10:08:03;17.90;1.00
10883;DHT22;5494;51.796;10.952;2023-10-08T10:10:36;17.90;1.00
10883;DHT22;5494;51.796;10.952;2023-10-08T10:13:08;17.90;1.00
10883;DHT22;5494;51.796;10.952;2023-10-08T10:15:42;17.70;1.00
10883;DHT22;5494;51.796;10.952;2023-10-08T10:18:14;17.50;99.90
10883;DHT22;5494;51.796;10.952;2023-10-08T10:20:45;17.30;99.90
10883;DHT22;5494;51.796;10.952;2023-10-08T10:23:36;17.20;99.90
10883;DHT22;5494;51.796;10.952;2023-10-08T10:26:22;16.60;99.90
10883;DHT22;5494;51.796;10.952;2023-10-08T10:29:20;16.10;1.00
10883;DHT22;5494;51.796;10.952;2023-10-08T10:31:51;16.20;1.00
10883;DHT22;5494;51.796;10.952;2023-10-08T10:34:23;16.40;99.90
10883;DHT22;5494;51.796;10.952;2023-10-08T10:36:54;16.70;99.90
10883;DHT22;5494;51.796;10.952;2023-10-08T10:39:27;16.90;1.00
10883;DHT22;5494;51.796;10.952;2023-10-08T10:41:58;16.70;1.00
10883;DHT22;5494;51.796;10.952;2023-10-08T10:44:30;16.60;1.00
10883;DHT22;5494;51.796;10.952;2023-10-08T10:47:00;16.60;1.00
10883;DHT22;5494;51.796;10.952;2023-10-08T10:49:43;16.60;1.00
10883;DHT22;5494;51.796;10.952;2023-10-08T10:52:20;16.60;99.90
10883;DHT22;5494;51.796;10.952;2023-10-08T10:55:03;16.60;99.90
10883;DHT22;5494;51.796;10.952;2023-10-08T10:57:48;16.70;1.00
10883;DHT22;5494;51.796;10.952;2023-10-08T11:00:25;16.90;78.70
10883;DHT22;5494;51.796;10.952;2023-10-08T11:03:12;16.90;45.00
10883;DHT22;5494;51.796;10.952;2023-10-08T11:05:53;16.80;1.00
10883;DHT22;5494;51.796;10.952;2023-10-08T11:08:27;16.40;99.90
10883;DHT22;5494;51.796;10.952;2023-10-08T11:11:02;16.60;1.00
10883;DHT22;5494;51.796;10.952;2023-10-08T11:13:34;17.00;99.90
10883;DHT22;5494;51.796;10.952;2023-10-08T11:16:07;17.10;99.90
10883;DHT22;5494;51.796;10.952;2023-10-08T11:18:44;17.20;42.40
10883;DHT22;5494;51.796;10.952;2023-10-08T11:21:17;17.20;99.90
10883;DHT22;5494;51.796;10.952;2023-10-08T11:23:52;17.20;99.90
10883;DHT22;5494;51.796;10.952;2023-10-08T11:26:23;17.20;99.90
10883;DHT22;5494;51.796;10.952;2023-10-08T11:29:01;17.20;1.00
10883;DHT22;5494;51.796;10.952;2023-10-08T11:31:31;17.10;98.90
10883;DHT22;5494;51.796;10.952;2023-10-08T11:34:04;16.90;99.90
10883;DHT22;5494;51.796;10.952;2023-10-08T11:36:37;16.80;99.90
10883;DHT22;5494;51.796;10.952;2023-10-08T11:39:16;16.80;99.90
10883;DHT22;5494;51.796;10.952;2023-10-08T11:41:56;16.80;1.00
10883;DHT22;5494;51.796;10.952;2023-10-08T11:44:30;16.60;99.90
10883;DHT22;5494;51.796;10.952;2023-10-08T11:47:02;16.30;99.90
10883;DHT22;5494;51.796;10.952;2023-10-08T11:49:40;16.30;99.90
10883;DHT22;5494;51.796;10.952;2023-10-08T11:52:17;16.20;99.90
10883;DHT22;5494;51.796;10.952;2023-10-08T11:54:48;16.10;99.90
10883;DHT22;5494;51.796;10.952;2023-10-08T11:57:19;16.00;99.90
10883;DHT22;5494;51.796;10.952;2023-10-08T11:59:50;16.00;1.00
10883;DHT22;5494;51.796;10.952;2023-10-08T12:02:22;16.10;1.00
10883;DHT22;5494;51.796;10.952;2023-10-08T12:04:52;16.10;99.90
10883;DHT22;5494;51.796;10.952;2023-10-08T12:07:25;16.20;99.90
10883;DHT22;5494;51.796;10.952;2023-10-08T12:09:55;16.20;99.90
10883;DHT22;5494;51.796;10.952;2023-10-08T12:12:23;16.30;99.90
10883;DHT22;5494;51.796;10.952;2023-10-08T12:14:51;16.40;99.90
10883;DHT22;5494;51.796;10.952;2023-10-08T12:17:22;16.60;99.90
10883;DHT22;5494;51.796;10.952;2023-10-08T12:20:06;16.80;95.80
10883;DHT22;5494;51.796;10.952;2023-10-08T12:22:50;16.90;99.90
10883;DHT22;5494;51.796;10.952;2023-10-08T12:25:18;16.90;99.90
10883;DHT22;5494;51.796;10.952;2023-10-08T12:27:47;17.00;91.00
10883;DHT22;5494;51.796;10.952;2023-10-08T12:30:16;17.20;94.70
10883;DHT22;5494;51.796;10.952;2023-10-08T12:32:44;17.20;1.00
10883;DHT22;5494;51.796;10.952;2023-10-08T12:35:15;17.00;1.00
10883;DHT22;5494;51.796;10.952;2023-10-08T12:37:43;16.70;1.00
10883;DHT22;5494;51.796;10.952;2023-10-08T12:40:12;16.40;99.90
10883;DHT22;5494;51.796;10.952;2023-10-08T12:42:50;16.20;99.90
10883;DHT22;5494;51.796;10.952;2023-10-08T12:45:19;16.20;1.00
10883;DHT22;5494;51.796;10.952;2023-10-08T12:47:49;16.30;1.00
10883;DHT22;5494;51.796;10.952;2023-10-08T12:50:20;16.20;1.00
10883;DHT22;5494;51.796;10.952;2023-10-08T12:52:56;16.20;1.00
10883;DHT22;5494;51.796;10.952;2023-10-08T12:55:30;16.20;1.00
10883;DHT22;5494;51.796;10.952;2023-10-08T12:58:03;15.70;1.00
10883;DHT22;5494;51.796;10.952;2023-10-08T13:00:36;16.10;1.00
10883;DHT22;5494;51.796;10.952;2023-10-08T13:03:05;16.20;99.90
10883;DHT22;5494;51.796;10.952;2023-10-08T13:05:44;16.30;99.90
10883;DHT22;5494;51.796;10.952;2023-10-08T13:08:13;16.20;1.00
10883;DHT22;5494;51.796;10.952;2023-10-08T13:10:41;16.20;99.90
10883;DHT22;5494;51.796;10.952;2023-10-08T13:13:11;16.00;99.90
10883;DHT22;5494;51.796;10.952;2023-10-08T13:15:40;15.70;99.90
10883;DHT22;5494;51.796;10.952;2023-10-08T13:18:09;15.50;1.00
10883;DHT22;5494;51.796;10.952;2023-10-08T13:20:38;15.50;1.00
10883;DHT22;5494;51.796;10.952;2023-10-08T13:23:09;15.30;1.00
10883;DHT22;5494;51.796;10.952;2023-10-08T13:25:38;15.10;99.90
10883;DHT22;5494;51.796;10.952;2023-10-08T13:28:06;15.00;1.00
10883;DHT22;5494;51.796;10.952;2023-10-08T13:30:38;15.00;99.90
10883;DHT22;5494;51.796;10.952;2023-10-08T13:33:06;15.00;99.90
10883;DHT22;5494;51.796;10.952;2023-10-08T13:35:36;15.00;99.90
10883;DHT22;5494;51.796;10.952;2023-10-08T13:38:05;15.00;1.00
10883;DHT22;5494;51.796;10.952;2023-10-08T13:40:37;15.00;1.00
10883;DHT22;5494;51.796;10.952;2023-10-08T13:43:10;15.10;1.00
10883;DHT22;5494;51.796;10.952;2023-10-08T13:45:38;15.10;1.00
10883;DHT22;5494;51.796;10.952;2023-10-08T13:48:08;15.20;1.00
10883;DHT22;5494;51.796;10.952;2023-10-08T13:50:41;15.30;1.00
10883;DHT22;5494;51.796;10.952;2023-10-08T13:53:10;15.40;99.90
10883;DHT22;5494;51.796;10.952;2023-10-08T13:55:41;15.60;99.90
10883;DHT22;5494;51.796;10.952;2023-10-08T13:58:12;15.60;99.90
10883;DHT22;5494;51.796;10.952;2023-10-08T14:00:40;15.50;99.90
10883;DHT22;5494;51.796;10.952;2023-10-08T14:03:08;15.50;99.90
10883;DHT22;5494;51.796;10.952;2023-10-08T14:05:38;15.60;99.90
10883;DHT22;5494;51.796;10.952;2023-10-08T14:08:07;15.70;99.90
10883;DHT22;5494;51.796;10.952;2023-10-08T14:10:43;15.70;99.60
10883;DHT22;5494;51.796;10.952;2023-10-08T14:13:11;15.70;99.90
10883;DHT22;5494;51.796;10.952;2023-10-08T14:15:40;15.60;99.90
10883;DHT22;5494;51.796;10.952;2023-10-08T14:18:13;15.60;99.90
10883;DHT22;5494;51.796;10.952;2023-10-08T14:20:44;15.70;99.90
10883;DHT22;5494;51.796;10.952;2023-10-08T14:23:17;15.70;99.90
10883;DHT22;5494;51.796;10.952;2023-10-08T14:25:46;15.50;99.90
10883;DHT22;5494;51.796;10.952;2023-10-08T14:28:17;15.50;99.90
10883;DHT22;5494;51.796;10.952;2023-10-08T14:31:07;15.50;99.90
10883;DHT22;5494;51.796;10.952;2023-10-08T14:33:36;15.40;99.90
10883;DHT22;5494;51.796;10.952;2023-10-08T14:36:10;15.40;99.90
10883;DHT22;5494;51.796;10.952;2023-10-08T14:38:56;15.20;1.00
10883;DHT22;5494;51.796;10.952;2023-10-08T14:41:43;15.20;1.00
10883;DHT22;5494;51.796;10.952;2023-10-08T14:44:29;15.10;1.00
10883;DHT22;5494;51.796;10.952;2023-10-08T14:46:57;15.10;1.00
10883;DHT22;5494;51.796;10.952;2023-10-08T14:49:25;15.20;69.40
10883;DHT22;5494;51.796;10.952;2023-10-08T14:51:54;15.40;1.00
10883;DHT22;5494;51.796;10.952;2023-10-08T14:54:23;15.60;1.00
10883;DHT22;5494;51.796;10.952;2023-10-08T14:56:52;15.70;1.00
10883;DHT22;5494;51.796;10.952;2023-10-08T14:59:20;15.80;1.00
10883;DHT22;5494;51.796;10.952;2023-10-08T15:01:50;15.90;1.00
10883;DHT22;5494;51.796;10.952;2023-10-08T15:04:18;15.90;1.00
10883;DHT22;5494;51.796;10.952;2023-10-08T15:06:46;15.90;1.00
10883;DHT22;5494;51.796;10.952;2023-10-08T15:09:15;16.00;1.00
10883;DHT22;5494;51.796;10.952;2023-10-08T15:11:48;16.00;1.00
10883;DHT22;5494;51.796;10.952;2023-10-08T15:14:21;16.10;99.90
10883;DHT22;5494;51.796;10.952;2023-10-08T15:16:51;16.10;99.90
10883;DHT22;5494;51.796;10.952;2023-10-08T15:19:19;16.00;99.90
10883;DHT22;5494;51.796;10.952;2023-10-08T15:21:48;15.90;99.90
10883;DHT22;5494;51.796;10.952;2023-10-08T15:24:19;15.80;1.00
10883;DHT22;5494;51.796;10.952;2023-10-08T15:26:48;15.70;99.90
10883;DHT22;5494;51.796;10.952;2023-10-08T15:29:16;15.60;1.00
10883;DHT22;5494;51.796;10.952;2023-10-08T15:31:46;15.60;1.00
10883;DHT22;5494;51.796;10.952;2023-10-08T15:34:16;15.50;1.00
10883;DHT22;5494;51.796;10.952;2023-10-08T15:37:00;15.50;1.00
10883;DHT22;5494;51.796;10.952;2023-10-08T15:39:28;15.40;1.00
10883;DHT22;5494;51.796;10.952;2023-10-08T15:41:56;15.20;1.00
10883;DHT22;5494;51.796;10.952;2023-10-08T15:44:25;15.20;58.40
10883;DHT22;5494;51.796;10.952;2023-10-08T15:46:55;15.20;29.00
10883;DHT22;5494;51.796;10.952;2023-10-08T15:49:23;15.20;99.90
10883;DHT22;5494;51.796;10.952;2023-10-08T15:51:51;15.20;1.00
10883;DHT22;5494;51.796;10.952;2023-10-08T15:54:20;15.00;1.00
10883;DHT22;5494;51.796;10.952;2023-10-08T15:56:48;15.00;99.90
10883;DHT22;5494;51.796;10.952;2023-10-08T15:59:16;15.00;1.00
10883;DHT22;5494;51.796;10.952;2023-10-08T16:01:45;14.80;99.90
10883;DHT22;5494;51.796;10.952;2023-10-08T16:04:17;14.70;1.00
10883;DHT22;5494;51.796;10.952;2023-10-08T16:06:47;14.60;99.90
10883;DHT22;5494;51.796;10.952;2023-10-08T16:09:16;14.50;7.80
10883;DHT22;5494;51.796;10.952;2023-10-08T16:11:45;14.50;1.00
10883;DHT22;5494;51.796;10.952;2023-10-08T16:14:13;14.40;99.90